createdAt,value
2023-10-10T00:01:03.847Z,18.15
2023-10-10T00:03:33.371Z,18.07
2023-10-10T00:06:01.950Z,18.04
2023-10-10T00:08:30.088Z,17.95
2023-10-10T00:10:58.848Z,17.89
2023-10-10T00:13:26.873Z,17.84
2023-10-10T00:15:54.866Z,17.80
2023-10-10T00:18:23.566Z,17.80
2023-10-10T00:20:51.895Z,17.82
2023-10-10T00:23:19.975Z,17.89
2023-10-10T00:25:48.025Z,17.91
2023-10-10T00:28:16.056Z,17.95
2023-10-10T00:30:44.291Z,17.99
2023-10-10T00:33:13.145Z,18.01
2023-10-10T00:35:41.330Z,17.93
2023-10-10T00:38:09.410Z,17.92
2023-10-10T00:40:37.393Z,17.81
2023-10-10T00:43:05.565Z,17.77
2023-10-10T00:45:33.624Z,17.66
2023-10-10T00:48:02.598Z,17.59
2023-10-10T00:50:33.979Z,17.60
2023-10-10T00:53:02.988Z,17.63
2023-10-10T00:55:31.128Z,17.60
2023-10-10T00:58:00.110Z,17.54
2023-10-10T01:00:28.453Z,17.48
2023-10-10T01:02:58.083Z,17.45
2023-10-10T01:05:26.395Z,17.32
2023-10-10T01:07:54.800Z,17.17
2023-10-10T01:10:25.990Z,17.10
2023-10-10T01:12:54.154Z,17.04
2023-10-10T01:15:22.350Z,16.92
2023-10-10T01:17:50.502Z,16.76
2023-10-10T01:20:20.197Z,16.79
2023-10-10T01:22:49.364Z,16.73
2023-10-10T01:25:19.195Z,16.60
2023-10-10T01:27:47.237Z,16.59
2023-10-10T01:30:15.651Z,16.37
2023-10-10T01:32:43.883Z,16.31
2023-10-10T01:35:12.306Z,16.33
2023-10-10T01:37:40.591Z,16.29
2023-10-10T01:40:09.223Z,16.47
2023-10-10T01:42:37.273Z,16.65
2023-10-10T01:45:06.583Z,16.64
2023-10-10T01:47:34.809Z,16.56
2023-10-10T01:50:08.569Z,16.63
2023-10-10T01:52:40.215Z,16.61
2023-10-10T01:55:08.701Z,16.55
2023-10-10T01:57:36.734Z,16.48
2023-10-10T02:00:05.166Z,16.36
2023-10-10T02:02:33.387Z,16.34
2023-10-10T02:05:02.642Z,16.40
2023-10-10T02:07:30.666Z,16.40
2023-10-10T02:09:59.428Z,16.30
2023-10-10T02:12:30.030Z,16.14
2023-10-10T02:14:58.117Z,16.14
2023-10-10T02:17:29.277Z,16.11
2023-10-10T02:19:58.064Z,16.09
2023-10-10T02:22:26.669Z,16.10
2023-10-10T02:24:55.024Z,15.99
2023-10-10T02:27:23.289Z,15.85
2023-10-10T02:29:52.184Z,15.78
2023-10-10T02:32:23.086Z,15.93
2023-10-10T02:34:51.879Z,15.91
2023-10-10T02:37:19.896Z,15.78
2023-10-10T02:39:48.247Z,15.48
2023-10-10T02:42:16.341Z,15.37
2023-10-10T02:44:44.341Z,15.49
2023-10-10T02:47:13.037Z,15.45
2023-10-10T02:49:41.944Z,15.41
2023-10-10T02:52:10.527Z,15.46
2023-10-10T02:54:38.626Z,15.47
2023-10-10T02:57:09.226Z,15.74
2023-10-10T02:59:37.290Z,16.02
2023-10-10T03:02:06.072Z,16.10
2023-10-10T03:04:34.205Z,16.23
2023-10-10T03:07:02.380Z,16.43
2023-10-10T03:09:35.845Z,16.35
2023-10-10T03:12:03.881Z,16.27
2023-10-10T03:14:33.412Z,16.17
2023-10-10T03:17:02.083Z,15.92
2023-10-10T03:19:30.384Z,15.85
2023-10-10T03:21:58.421Z,15.82
2023-10-10T03:24:27.720Z,15.77
2023-10-10T03:26:55.855Z,15.81
2023-10-10T03:29:24.701Z,15.80
2023-10-10T03:31:53.280Z,15.74
2023-10-10T03:34:21.362Z,15.77
2023-10-10T03:36:49.719Z,15.60
2023-10-10T03:39:17.915Z,15.50
2023-10-10T03:41:45.980Z,15.59
2023-10-10T03:44:15.715Z,15.39
2023-10-10T03:46:45.394Z,15.52
2023-10-10T03:49:13.501Z,15.54
2023-10-10T03:51:41.646Z,15.57
2023-10-10T03:54:09.714Z,15.44
2023-10-10T03:56:39.038Z,15.32
2023-10-10T03:59:08.089Z,15.31
2023-10-10T04:01:36.434Z,15.31
2023-10-10T04:04:05.193Z,15.25
2023-10-10T04:06:33.864Z,15.34
2023-10-10T04:09:01.892Z,15.38
2023-10-10T04:11:30.002Z,15.41
2023-10-10T04:14:01.097Z,15.44
2023-10-10T04:16:29.138Z,15.44
2023-10-10T04:18:57.226Z,15.40
2023-10-10T04:21:25.268Z,15.28
2023-10-10T04:23:53.306Z,15.17
2023-10-10T04:26:24.944Z,15.05
2023-10-10T04:28:53.685Z,15.00
2023-10-10T04:31:22.565Z,15.00
2023-10-10T04:33:50.625Z,14.99
2023-10-10T04:36:18.702Z,15.03
2023-10-10T04:38:46.945Z,14.72
2023-10-10T04:41:15.602Z,14.79
2023-10-10T04:43:43.623Z,14.84
2023-10-10T04:46:17.115Z,14.63
2023-10-10T04:48:45.478Z,14.78
2023-10-10T04:51:15.861Z,14.86
2023-10-10T04:53:43.905Z,14.78
2023-10-10T04:56:11.973Z,14.87
2023-10-10T04:58:40.012Z,14.81
2023-10-10T05:01:09.660Z,14.78
2023-10-10T05:03:37.862Z,14.80
2023-10-10T05:06:09.130Z,14.78
2023-10-10T05:08:37.253Z,14.79
2023-10-10T05:11:05.598Z,14.82
2023-10-10T05:13:37.269Z,14.87
2023-10-10T05:16:05.863Z,14.63
2023-10-10T05:18:36.469Z,14.68
2023-10-10T05:21:04.762Z,14.64
2023-10-10T05:23:32.824Z,14.62
2023-10-10T05:26:01.325Z,14.61
2023-10-10T05:28:29.722Z,14.61
2023-10-10T05:30:58.745Z,14.46
2023-10-10T05:33:27.157Z,14.47
2023-10-10T05:36:00.495Z,14.47
2023-10-10T05:38:28.695Z,14.48
2023-10-10T05:40:59.496Z,14.52
2023-10-10T05:43:29.103Z,14.52
2023-10-10T05:45:57.186Z,14.59
2023-10-10T05:48:25.573Z,14.57
2023-10-10T05:50:54.125Z,14.47
2023-10-10T05:53:22.252Z,14.45
2023-10-10T05:55:50.552Z,14.53
2023-10-10T05:58:21.676Z,14.53
2023-10-10T06:00:49.826Z,14.49
2023-10-10T06:03:19.020Z,14.41
2023-10-10T06:05:47.263Z,14.27
2023-10-10T06:08:15.562Z,14.28
2023-10-10T06:10:43.941Z,14.21
2023-10-10T06:13:11.962Z,14.27
2023-10-10T06:15:40.173Z,14.17
2023-10-10T06:18:08.862Z,14.04
2023-10-10T06:20:51.390Z,14.19
2023-10-10T06:23:30.332Z,14.23
2023-10-10T06:26:01.288Z,14.41
2023-10-10T06:28:30.917Z,14.45
2023-10-10T06:30:59.300Z,14.44
2023-10-10T06:33:28.350Z,14.36
2023-10-10T06:36:12.671Z,14.26
2023-10-10T06:38:41.376Z,14.23
2023-10-10T06:41:09.459Z,14.17
2023-10-10T06:43:37.823Z,14.18
2023-10-10T06:46:05.945Z,14.17
2023-10-10T06:48:34.257Z,14.21
2023-10-10T06:51:05.052Z,14.22
2023-10-10T06:53:33.902Z,14.18
2023-10-10T06:56:07.998Z,14.25
2023-10-10T06:58:35.986Z,14.21
2023-10-10T07:01:04.055Z,14.22
2023-10-10T07:03:32.319Z,14.22
2023-10-10T07:06:00.492Z,14.22
2023-10-10T07:08:28.523Z,14.20
2023-10-10T07:10:56.607Z,14.22
2023-10-10T07:13:24.796Z,14.21
2023-10-10T07:15:52.873Z,14.21
2023-10-10T07:18:21.765Z,14.05
2023-10-10T07:20:51.277Z,14.03
2023-10-10T07:23:19.275Z,14.09
2023-10-10T07:25:48.004Z,14.21
2023-10-10T07:28:16.078Z,14.20
2023-10-10T07:30:45.796Z,14.26
2023-10-10T07:33:14.181Z,14.36
2023-10-10T07:35:46.525Z,14.34
2023-10-10T07:38:15.266Z,14.30
2023-10-10T07:40:44.085Z,14.30
2023-10-10T07:43:12.398Z,14.29
2023-10-10T07:45:42.044Z,14.30
2023-10-10T07:48:13.303Z,14.28
2023-10-10T07:50:44.341Z,14.26
2023-10-10T07:53:12.367Z,14.27
2023-10-10T07:55:41.580Z,14.06
2023-10-10T07:58:10.464Z,14.01
2023-10-10T08:00:38.788Z,14.07
2023-10-10T08:03:10.401Z,14.08
2023-10-10T08:05:38.614Z,13.93
2023-10-10T08:08:06.907Z,13.91
2023-10-10T08:10:35.123Z,13.71
2023-10-10T08:13:03.175Z,13.79
2023-10-10T08:15:31.223Z,13.86
2023-10-10T08:17:59.470Z,13.81
2023-10-10T08:20:29.835Z,13.81
2023-10-10T08:22:58.117Z,13.83
2023-10-10T08:25:29.679Z,13.74
2023-10-10T08:27:58.441Z,13.74
2023-10-10T08:30:27.646Z,13.42
2023-10-10T08:32:58.330Z,13.44
2023-10-10T08:35:27.341Z,13.41
2023-10-10T08:37:55.441Z,13.36
2023-10-10T08:40:23.465Z,13.38
2023-10-10T08:42:52.160Z,13.31
2023-10-10T08:45:21.382Z,13.38
2023-10-10T08:47:53.222Z,13.30
2023-10-10T08:50:22.698Z,13.30
2023-10-10T08:52:50.771Z,13.33
2023-10-10T08:55:21.002Z,13.34
2023-10-10T08:57:49.036Z,13.43
2023-10-10T09:00:17.467Z,13.58
2023-10-10T09:02:47.175Z,13.53
2023-10-10T09:05:18.852Z,13.52
2023-10-10T09:07:47.319Z,13.45
2023-10-10T09:10:15.457Z,13.46
2023-10-10T09:12:44.836Z,13.21
2023-10-10T09:15:13.922Z,13.16
2023-10-10T09:17:42.723Z,13.30
2023-10-10T09:20:24.552Z,13.10
2023-10-10T09:22:59.725Z,13.11
2023-10-10T09:25:29.754Z,13.08
2023-10-10T09:28:05.676Z,13.22
2023-10-10T09:30:34.729Z,13.32
2023-10-10T09:33:04.417Z,13.24
2023-10-10T09:35:32.567Z,13.19
2023-10-10T09:38:04.103Z,13.15
2023-10-10T09:40:32.179Z,13.03
2023-10-10T09:43:02.824Z,13.18
2023-10-10T09:45:36.591Z,13.36
2023-10-10T09:48:08.462Z,13.41
2023-10-10T09:50:37.069Z,13.38
2023-10-10T09:53:06.022Z,13.44
2023-10-10T09:55:35.458Z,13.44
2023-10-10T09:58:05.463Z,13.41
2023-10-10T10:00:39.345Z,13.42
2023-10-10T10:03:09.120Z,13.33
2023-10-10T10:05:38.671Z,13.16
2023-10-10T10:08:21.126Z,13.27
2023-10-10T10:10:59.423Z,13.32
2023-10-10T10:14:05.029Z,13.18
2023-10-10T10:16:57.815Z,13.15
2023-10-10T10:19:26.199Z,13.06
2023-10-10T10:22:01.431Z,12.99
2023-10-10T10:24:53.176Z,13.03
2023-10-10T10:27:26.223Z,13.10
2023-10-10T10:30:05.694Z,13.03
2023-10-10T10:32:36.811Z,12.96
2023-10-10T10:35:05.187Z,12.95
2023-10-10T10:37:33.254Z,12.94
2023-10-10T10:40:04.800Z,12.95
2023-10-10T10:42:35.876Z,12.91
2023-10-10T10:45:22.431Z,12.90
2023-10-10T10:47:55.812Z,12.91
2023-10-10T10:50:33.220Z,12.83
2023-10-10T10:53:05.935Z,12.89
2023-10-10T10:55:35.005Z,12.86
2023-10-10T10:58:03.328Z,12.86
2023-10-10T11:00:40.220Z,13.00
2023-10-10T11:03:08.741Z,12.98
2023-10-10T11:05:37.761Z,12.96
2023-10-10T11:08:06.332Z,12.86
2023-10-10T11:10:34.365Z,12.84
2023-10-10T11:13:02.368Z,12.78
2023-10-10T11:15:30.713Z,12.72
2023-10-10T11:17:59.144Z,12.80
2023-10-10T11:20:28.936Z,12.85
2023-10-10T11:22:58.118Z,12.91
2023-10-10T11:25:26.366Z,12.98
2023-10-10T11:27:57.488Z,13.07
2023-10-10T11:30:27.996Z,12.94
2023-10-10T11:32:56.378Z,12.90
2023-10-10T11:35:26.842Z,12.90
2023-10-10T11:37:55.273Z,12.89
2023-10-10T11:40:23.657Z,12.83
2023-10-10T11:42:52.130Z,12.92
2023-10-10T11:45:20.328Z,12.90
2023-10-10T11:47:49.806Z,12.87
2023-10-10T11:50:17.950Z,12.88
2023-10-10T11:52:53.227Z,12.91
2023-10-10T11:55:31.047Z,12.94
2023-10-10T11:58:00.118Z,12.94
2023-10-10T12:00:28.601Z,12.92
2023-10-10T12:02:57.596Z,12.96
2023-10-10T12:05:26.416Z,12.95
2023-10-10T12:08:06.262Z,12.89
2023-10-10T12:10:35.945Z,12.87
2023-10-10T12:13:03.996Z,12.87
2023-10-10T12:15:32.850Z,12.85
2023-10-10T12:18:01.567Z,12.84
2023-10-10T12:20:29.683Z,12.83
2023-10-10T12:22:58.016Z,12.83
2023-10-10T12:25:26.683Z,12.86
2023-10-10T12:27:54.689Z,12.91
2023-10-10T12:30:22.751Z,12.98
2023-10-10T12:32:50.924Z,12.97
2023-10-10T12:35:19.320Z,12.93
2023-10-10T12:37:47.377Z,12.88
2023-10-10T12:40:15.474Z,12.95
2023-10-10T12:42:43.754Z,13.00
2023-10-10T12:45:13.168Z,12.92
2023-10-10T12:47:41.607Z,12.87
2023-10-10T12:50:10.014Z,12.96
2023-10-10T12:52:38.109Z,12.84
2023-10-10T12:55:06.516Z,12.96
2023-10-10T12:57:34.662Z,13.05
2023-10-10T13:00:05.938Z,13.03
2023-10-10T13:02:37.005Z,12.90
2023-10-10T13:05:05.276Z,12.90
2023-10-10T13:07:33.934Z,12.90
2023-10-10T13:10:01.960Z,12.92
2023-10-10T13:12:30.043Z,12.92
2023-10-10T13:15:00.430Z,12.85
2023-10-10T13:17:28.789Z,12.83
2023-10-10T13:19:57.279Z,12.80
2023-10-10T13:22:27.850Z,12.86
2023-10-10T13:24:55.868Z,12.83
2023-10-10T13:27:24.382Z,12.80
2023-10-10T13:29:52.416Z,12.74
2023-10-10T13:32:20.752Z,12.73
2023-10-10T13:34:49.560Z,12.72
2023-10-10T13:37:17.623Z,12.70
2023-10-10T13:39:45.874Z,12.67
2023-10-10T13:42:14.235Z,12.65
2023-10-10T13:44:43.458Z,12.59
2023-10-10T13:47:14.843Z,12.66
2023-10-10T13:49:42.925Z,12.69
2023-10-10T13:52:10.990Z,12.68
2023-10-10T13:54:39.639Z,12.69
2023-10-10T13:57:07.639Z,12.64
2023-10-10T13:59:35.850Z,12.69
2023-10-10T14:02:04.456Z,12.73
2023-10-10T14:04:33.330Z,12.75
2023-10-10T14:07:04.750Z,12.73
2023-10-10T14:09:33.138Z,12.84
2023-10-10T14:12:06.201Z,12.76
2023-10-10T14:14:34.572Z,12.75
2023-10-10T14:17:02.657Z,12.79
2023-10-10T14:19:30.758Z,12.84
2023-10-10T14:22:01.778Z,12.90
2023-10-10T14:24:29.808Z,12.81
2023-10-10T14:26:57.833Z,12.77
2023-10-10T14:29:25.947Z,12.79
2023-10-10T14:31:54.654Z,12.78
2023-10-10T14:34:22.684Z,12.85
2023-10-10T14:36:51.062Z,12.86
2023-10-10T14:39:20.090Z,12.88
2023-10-10T14:41:48.186Z,12.87
2023-10-10T14:44:17.432Z,12.88
2023-10-10T14:46:45.422Z,12.91
2023-10-10T14:49:13.401Z,12.92
2023-10-10T14:51:41.585Z,12.90
2023-10-10T14:54:11.454Z,12.85
2023-10-10T14:56:43.264Z,12.83
2023-10-10T14:59:11.347Z,12.77
2023-10-10T15:01:39.732Z,12.78
2023-10-10T15:04:08.981Z,12.77
2023-10-10T15:06:38.325Z,12.81
2023-10-10T15:09:11.138Z,12.90
2023-10-10T15:11:39.149Z,12.90
2023-10-10T15:14:07.216Z,12.91
2023-10-10T15:16:35.386Z,12.95
2023-10-10T15:19:03.490Z,13.06
2023-10-10T15:21:31.485Z,13.12
2023-10-10T15:23:59.594Z,13.12
2023-10-10T15:26:27.757Z,13.05
2023-10-10T15:28:56.996Z,13.01
2023-10-10T15:31:27.887Z,13.09
2023-10-10T15:33:57.707Z,13.08
2023-10-10T15:36:35.347Z,13.05
2023-10-10T15:39:04.884Z,13.05
2023-10-10T15:41:34.591Z,13.05
2023-10-10T15:44:02.691Z,13.13
2023-10-10T15:46:35.434Z,13.08
2023-10-10T15:49:07.882Z,13.25
2023-10-10T15:51:39.338Z,13.74
2023-10-10T15:54:11.171Z,13.60
2023-10-10T15:56:39.436Z,13.54
2023-10-10T15:59:07.490Z,13.43
2023-10-10T16:01:35.774Z,13.62
2023-10-10T16:04:08.281Z,13.54
2023-10-10T16:06:37.385Z,13.52
2023-10-10T16:09:07.833Z,13.82
2023-10-10T16:11:36.404Z,13.98
2023-10-10T16:14:05.755Z,14.15
2023-10-10T16:16:33.761Z,14.20
2023-10-10T16:19:01.946Z,14.36
2023-10-10T16:21:29.938Z,14.36
2023-10-10T16:23:57.967Z,14.32
2023-10-10T16:26:26.132Z,14.07
2023-10-10T16:28:54.199Z,13.88
2023-10-10T16:31:22.498Z,14.16
2023-10-10T16:33:51.278Z,13.92
2023-10-10T16:36:19.319Z,13.87
2023-10-10T16:38:48.271Z,14.09
2023-10-10T16:41:16.311Z,14.12
2023-10-10T16:43:58.098Z,14.06
2023-10-10T16:46:28.680Z,14.06
2023-10-10T16:48:56.789Z,14.25
2023-10-10T16:51:25.518Z,14.54
2023-10-10T16:53:54.325Z,14.79
2023-10-10T16:56:22.610Z,14.87
2023-10-10T16:58:51.441Z,15.16
2023-10-10T17:01:21.296Z,15.61
2023-10-10T17:03:51.669Z,15.85
2023-10-10T17:06:20.792Z,15.50
2023-10-10T17:08:48.913Z,15.40
2023-10-10T17:11:16.980Z,14.96
2023-10-10T17:13:45.253Z,15.07
2023-10-10T17:16:15.161Z,14.98
2023-10-10T17:18:44.791Z,15.17
2023-10-10T17:21:14.569Z,14.97
2023-10-10T17:23:43.362Z,15.01
2023-10-10T17:26:13.044Z,15.12
2023-10-10T17:28:42.619Z,15.11
2023-10-10T17:31:12.899Z,15.31
2023-10-10T17:33:41.075Z,14.72
2023-10-10T17:36:09.635Z,15.04
2023-10-10T17:38:38.301Z,14.77
2023-10-10T17:41:07.898Z,14.93
2023-10-10T17:43:37.342Z,14.83
2023-10-10T17:46:05.475Z,14.75
2023-10-10T17:48:33.652Z,14.90
2023-10-10T17:51:02.712Z,14.79
2023-10-10T17:53:30.948Z,14.84
2023-10-10T17:55:59.072Z,14.81
2023-10-10T17:58:27.735Z,14.62
2023-10-10T18:00:56.072Z,14.55
2023-10-10T18:03:24.553Z,14.83
2023-10-10T18:05:52.859Z,14.97
2023-10-10T18:08:20.958Z,14.94
2023-10-10T18:10:49.791Z,15.00
2023-10-10T18:13:20.239Z,14.97
2023-10-10T18:15:48.339Z,15.16
2023-10-10T18:18:16.511Z,15.22
2023-10-10T18:20:45.090Z,15.29
2023-10-10T18:23:13.168Z,15.68
2023-10-10T18:25:41.896Z,15.84
2023-10-10T18:28:11.919Z,15.93
2023-10-10T18:30:41.608Z,16.14
2023-10-10T18:33:10.689Z,15.69
2023-10-10T18:35:41.407Z,15.63
2023-10-10T18:38:09.853Z,15.47
2023-10-10T18:40:42.220Z,15.45
2023-10-10T18:43:10.664Z,15.80
2023-10-10T18:45:39.876Z,15.97
2023-10-10T18:48:08.841Z,15.98
2023-10-10T18:50:37.801Z,16.07
2023-10-10T18:53:05.993Z,15.83
2023-10-10T18:55:33.973Z,16.00
2023-10-10T18:58:02.047Z,16.10
2023-10-10T19:00:34.637Z,16.04
2023-10-10T19:03:05.376Z,16.23
2023-10-10T19:05:33.705Z,16.39
2023-10-10T19:08:01.833Z,16.34
2023-10-10T19:10:30.115Z,16.58
2023-10-10T19:13:01.387Z,16.60
2023-10-10T19:15:29.464Z,16.95
2023-10-10T19:17:58.448Z,17.26
2023-10-10T19:20:28.327Z,17.39
2023-10-10T19:22:58.039Z,17.48
2023-10-10T19:25:26.200Z,17.54
2023-10-10T19:27:56.863Z,17.29
2023-10-10T19:30:28.745Z,16.98
2023-10-10T19:32:57.781Z,17.01
2023-10-10T19:35:27.186Z,16.96
2023-10-10T19:37:57.949Z,16.77
2023-10-10T19:40:28.032Z,16.92
2023-10-10T19:42:58.959Z,17.43
2023-10-10T19:45:27.496Z,17.73
2023-10-10T19:47:57.655Z,17.56
2023-10-10T19:50:26.572Z,17.83
2023-10-10T19:52:55.142Z,17.86
2023-10-10T19:55:23.191Z,17.98
2023-10-10T19:57:52.110Z,17.95
2023-10-10T20:00:20.897Z,17.84
2023-10-10T20:02:54.009Z,17.99
2023-10-10T20:05:22.107Z,18.01
2023-10-10T20:07:51.158Z,17.79
2023-10-10T20:10:24.136Z,17.86
2023-10-10T20:12:52.972Z,17.78
2023-10-10T20:15:26.418Z,17.80
2023-10-10T20:17:58.698Z,17.56
2023-10-10T20:20:28.236Z,17.37
2023-10-10T20:22:56.606Z,17.31
2023-10-10T20:25:25.736Z,17.15
2023-10-10T20:27:53.801Z,17.00
2023-10-10T20:30:25.981Z,16.96
2023-10-10T20:32:55.451Z,16.76
2023-10-10T20:35:24.193Z,16.67
2023-10-10T20:37:53.737Z,16.61
2023-10-10T20:40:22.650Z,16.59
2023-10-10T20:42:50.918Z,16.62
2023-10-10T20:45:23.293Z,16.61
2023-10-10T20:47:51.818Z,16.57
2023-10-10T20:50:20.642Z,16.57
2023-10-10T20:52:48.679Z,16.51
2023-10-10T20:55:17.009Z,16.53
2023-10-10T20:57:46.216Z,16.57
2023-10-10T21:00:14.742Z,16.66
2023-10-10T21:02:42.820Z,16.53
2023-10-10T21:05:11.798Z,16.54
2023-10-10T21:07:39.816Z,16.32
2023-10-10T21:10:08.653Z,16.46
2023-10-10T21:12:36.702Z,16.34
2023-10-10T21:15:05.229Z,16.22
2023-10-10T21:17:34.185Z,15.91
2023-10-10T21:20:05.331Z,16.20
2023-10-10T21:22:36.955Z,16.16
2023-10-10T21:25:05.667Z,16.16
2023-10-10T21:27:35.166Z,16.33
2023-10-10T21:30:04.831Z,16.73
2023-10-10T21:32:34.476Z,16.68
2023-10-10T21:35:03.350Z,16.60
2023-10-10T21:37:31.572Z,16.62
2023-10-10T21:39:59.719Z,16.72
2023-10-10T21:42:27.732Z,17.06
2023-10-10T21:44:55.843Z,17.16
2023-10-10T21:47:23.983Z,17.23
2023-10-10T21:49:52.070Z,17.55
2023-10-10T21:52:20.352Z,18.01
2023-10-10T21:54:50.593Z,17.98
2023-10-10T21:57:18.850Z,18.03
2023-10-10T21:59:47.233Z,18.41
2023-10-10T22:02:15.352Z,18.42
2023-10-10T22:04:43.762Z,18.48
2023-10-10T22:07:23.523Z,18.34
2023-10-10T22:09:57.019Z,18.23
2023-10-10T22:12:25.363Z,18.21
2023-10-10T22:14:53.467Z,18.23
2023-10-10T22:17:21.566Z,18.31
2023-10-10T22:19:49.945Z,18.19
2023-10-10T22:22:18.836Z,18.07
2023-10-10T22:24:47.571Z,17.86
2023-10-10T22:27:15.660Z,17.67
2023-10-10T22:29:44.086Z,17.59
2023-10-10T22:32:12.377Z,17.54
2023-10-10T22:34:41.102Z,17.47
2023-10-10T22:37:09.280Z,17.48
2023-10-10T22:39:37.337Z,17.37
2023-10-10T22:42:05.549Z,17.35
2023-10-10T22:44:33.684Z,17.37
2023-10-10T22:47:01.733Z,17.18
2023-10-10T22:49:29.729Z,17.10
2023-10-10T22:52:00.401Z,17.12
2023-10-10T22:54:28.445Z,17.16
2023-10-10T22:56:58.388Z,17.03
2023-10-10T22:59:26.692Z,16.99
2023-10-10T23:01:54.823Z,17.02
2023-10-10T23:04:23.012Z,16.85
2023-10-10T23:06:53.381Z,16.88
2023-10-10T23:09:22.099Z,16.90
2023-10-10T23:11:50.469Z,16.80
2023-10-10T23:14:19.345Z,16.83
2023-10-10T23:16:47.685Z,16.87
2023-10-10T23:19:16.005Z,16.79
2023-10-10T23:21:44.214Z,16.72
2023-10-10T23:24:12.369Z,16.66
2023-10-10T23:26:40.475Z,16.64
2023-10-10T23:29:08.520Z,16.48
2023-10-10T23:31:37.351Z,16.45
2023-10-10T23:34:05.384Z,16.46
2023-10-10T23:36:34.801Z,16.38
2023-10-10T23:39:02.808Z,16.31
2023-10-10T23:41:31.460Z,16.30
2023-10-10T23:43:59.543Z,16.21
2023-10-10T23:46:27.723Z,16.24
2023-10-10T23:48:55.826Z,16.18
2023-10-10T23:51:24.081Z,16.14
2023-10-10T23:53:52.138Z,16.02
2023-10-10T23:56:20.207Z,15.94
2023-10-10T23:58:48.253Z,16.02
